createdAt,value
2018-04-08T00:00:11.940Z,0
2018-04-08T00:01:11.933Z,0
2018-04-08T00:02:12.196Z,0
2018-04-08T00:03:11.667Z,0
2018-04-08T00:04:11.408Z,0
2018-04-08T00:05:11.650Z,0
2018-04-08T00:06:11.893Z,0
2018-04-08T00:07:11.898Z,0
2018-04-08T00:08:11.884Z,0
2018-04-08T00:09:12.128Z,0
2018-04-08T00:10:11.864Z,0
2018-04-08T00:11:11.874Z,0
2018-04-08T00:12:11.847Z,0
2018-04-08T00:13:11.594Z,0
2018-04-08T00:14:11.829Z,0
2018-04-08T00:15:11.826Z,0
2018-04-08T00:16:11.825Z,0
2018-04-08T00:17:11.556Z,0
2018-04-08T00:18:11.802Z,0
2018-04-08T00:19:11.533Z,0
2018-04-08T00:20:11.781Z,0
2018-04-08T00:21:11.266Z,0
2018-04-08T00:22:12.024Z,0
2018-04-08T00:23:12.123Z,0
2018-04-08T00:24:12.008Z,0
2018-04-08T00:25:11.752Z,0
2018-04-08T00:26:11.991Z,0
2018-04-08T00:27:11.219Z,0
2018-04-08T00:28:11.715Z,0
2018-04-08T00:29:11.460Z,0
2018-04-08T00:30:11.966Z,0
2018-04-08T00:31:11.693Z,0
2018-04-08T00:32:11.954Z,0
2018-04-08T00:33:11.681Z,0
2018-04-08T00:34:11.423Z,0
2018-04-08T00:35:11.665Z,0
2018-04-08T00:36:11.906Z,0
2018-04-08T00:37:11.651Z,0
2018-04-08T00:38:11.397Z,0
2018-04-08T00:39:11.894Z,0
2018-04-08T00:40:11.125Z,0
2018-04-08T00:41:11.621Z,0
2018-04-08T00:42:11.103Z,0
2018-04-08T00:43:11.346Z,0
2018-04-08T00:44:11.360Z,0
2018-04-08T00:45:11.349Z,0
2018-04-08T00:46:11.334Z,0
2018-04-08T00:47:11.825Z,0
2018-04-08T00:48:11.569Z,0
2018-04-08T00:49:11.833Z,0
2018-04-08T00:50:11.546Z,0
2018-04-08T00:51:11.035Z,0
2018-04-08T00:52:11.790Z,0
2018-04-08T00:53:11.776Z,0
2018-04-08T00:54:11.532Z,0
2018-04-08T00:55:11.761Z,0
2018-04-08T00:56:11.529Z,0
2018-04-08T00:57:11.235Z,0
2018-04-08T00:58:10.981Z,0
2018-04-08T00:59:11.260Z,0
2018-04-08T01:00:11.486Z,0
2018-04-08T01:01:11.464Z,0
2018-04-08T01:02:11.450Z,0
2018-04-08T01:03:11.449Z,0
2018-04-08T01:04:11.695Z,0
2018-04-08T01:05:11.175Z,0
2018-04-08T01:06:10.915Z,0
2018-04-08T01:07:11.416Z,0
2018-04-08T01:08:11.427Z,0
2018-04-08T01:09:11.400Z,0
2018-04-08T01:10:11.390Z,0
2018-04-08T01:11:11.128Z,0
2018-04-08T01:12:10.867Z,0
2018-04-08T01:13:11.169Z,0
2018-04-08T01:14:11.618Z,0
2018-04-08T01:15:11.352Z,0
2018-04-08T01:16:11.348Z,0
2018-04-08T01:17:11.586Z,0
2018-04-08T01:18:11.331Z,0
2018-04-08T01:19:11.071Z,0
2018-04-08T01:20:11.058Z,0
2018-04-08T01:21:11.304Z,0
2018-04-08T01:22:11.547Z,0
2018-04-08T01:23:11.041Z,0
2018-04-08T01:24:11.533Z,0
2018-04-08T01:25:11.526Z,0
2018-04-08T01:26:11.273Z,0
2018-04-08T01:27:11.009Z,0
2018-04-08T01:28:11.248Z,0
2018-04-08T01:29:11.244Z,0
2018-04-08T01:30:11.252Z,0
2018-04-08T01:31:11.224Z,0
2018-04-08T01:32:11.220Z,0
2018-04-08T01:33:10.957Z,0
2018-04-08T01:34:10.945Z,0
2018-04-08T01:35:10.996Z,0
2018-04-08T01:36:10.426Z,0
2018-04-08T01:37:11.189Z,0
2018-04-08T01:38:11.170Z,0
2018-04-08T01:39:10.451Z,0
2018-04-08T01:40:10.900Z,0
2018-04-08T01:41:10.912Z,0
2018-04-08T01:42:11.135Z,0
2018-04-08T01:43:11.131Z,0
2018-04-08T01:44:10.879Z,0
2018-04-08T01:45:10.860Z,0
2018-04-08T01:46:10.602Z,0
2018-04-08T01:47:11.102Z,0
2018-04-08T01:48:10.584Z,0
2018-04-08T01:49:11.089Z,0
2018-04-08T01:50:10.568Z,0
2018-04-08T01:51:11.075Z,0
2018-04-08T01:52:11.060Z,0
2018-04-08T01:53:10.802Z,0
2018-04-08T01:54:11.057Z,0
2018-04-08T01:55:10.782Z,0
2018-04-08T01:56:11.283Z,0
2018-04-08T01:57:11.274Z,0
2018-04-08T01:58:10.511Z,0
2018-04-08T01:59:10.501Z,0
2018-04-08T02:00:10.744Z,0
2018-04-08T02:01:11.006Z,0
2018-04-08T02:02:10.982Z,0
2018-04-08T02:03:11.226Z,0
2018-04-08T02:04:10.962Z,0
2018-04-08T02:05:10.966Z,0
2018-04-08T02:06:10.698Z,0
2018-04-08T02:07:11.193Z,0
2018-04-08T02:08:10.688Z,0
2018-04-08T02:09:10.931Z,0
2018-04-08T02:10:10.667Z,0
2018-04-08T02:11:10.910Z,0
2018-04-08T02:12:10.900Z,0
2018-04-08T02:13:10.639Z,0
2018-04-08T02:14:10.886Z,0
2018-04-08T02:15:10.882Z,0
2018-04-08T02:16:10.364Z,0
2018-04-08T02:17:10.611Z,0
2018-04-08T02:18:10.601Z,0
2018-04-08T02:19:10.854Z,0
2018-04-08T02:20:10.588Z,0
2018-04-08T02:21:10.343Z,0
2018-04-08T02:22:10.569Z,0
2018-04-08T02:23:11.065Z,0
2018-04-08T02:24:11.067Z,0
2018-04-08T02:25:10.548Z,0
2018-04-08T02:26:10.792Z,0
2018-04-08T02:27:10.538Z,0
2018-04-08T02:28:11.028Z,0
2018-04-08T02:29:10.765Z,0
2018-04-08T02:30:10.763Z,0
2018-04-08T02:31:10.509Z,0
2018-04-08T02:32:10.746Z,0
2018-04-08T02:33:11.015Z,0
2018-04-08T02:34:10.484Z,0
2018-04-08T02:35:10.478Z,0
2018-04-08T02:36:10.475Z,0
2018-04-08T02:37:11.020Z,0
2018-04-08T02:38:10.698Z,0
2018-04-08T02:39:10.458Z,0
2018-04-08T02:40:10.954Z,0
2018-04-08T02:41:10.674Z,0
2018-04-08T02:42:10.412Z,0
2018-04-08T02:43:10.659Z,0
2018-04-08T02:44:10.405Z,0
2018-04-08T02:45:10.410Z,0
2018-04-08T02:46:10.380Z,0
2018-04-08T02:47:10.886Z,0
2018-04-08T02:48:10.636Z,0
2018-04-08T02:49:10.875Z,0
2018-04-08T02:50:10.606Z,0
2018-04-08T02:51:10.877Z,0
2018-04-08T02:52:10.856Z,0
2018-04-08T02:53:10.326Z,0
2018-04-08T02:54:10.326Z,0
2018-04-08T02:55:10.818Z,0
2018-04-08T02:56:10.299Z,0
2018-04-08T02:57:10.293Z,0
2018-04-08T02:58:10.532Z,0
2018-04-08T02:59:10.797Z,0
2018-04-08T03:00:10.522Z,0
2018-04-08T03:01:10.518Z,0
2018-04-08T03:02:10.527Z,0
2018-04-08T03:03:10.743Z,0
2018-04-08T03:04:10.486Z,0
2018-04-08T03:05:10.239Z,0
2018-04-08T03:06:10.233Z,0
2018-04-08T03:07:09.985Z,0
2018-04-08T03:08:10.704Z,0
2018-04-08T03:09:10.444Z,0
2018-04-08T03:10:10.436Z,0
2018-04-08T03:11:09.916Z,0
2018-04-08T03:12:10.429Z,0
2018-04-08T03:13:10.404Z,0
2018-04-08T03:14:10.142Z,0
2018-04-08T03:15:10.142Z,0
2018-04-08T03:16:10.379Z,0
2018-04-08T03:17:10.627Z,0
2018-04-08T03:18:10.615Z,0
2018-04-08T03:19:09.845Z,0
2018-04-08T03:20:09.587Z,0
2018-04-08T03:21:10.086Z,0
2018-04-08T03:22:10.577Z,0
2018-04-08T03:23:10.066Z,0
2018-04-08T03:24:10.059Z,0
2018-04-08T03:25:10.306Z,0
2018-04-08T03:26:10.042Z,0
2018-04-08T03:27:10.044Z,0
2018-04-08T03:28:10.025Z,0
2018-04-08T03:29:10.268Z,0
2018-04-08T03:30:10.535Z,0
2018-04-08T03:31:10.269Z,0
2018-04-08T03:32:10.242Z,0
2018-04-08T03:33:10.487Z,0
2018-04-08T03:34:10.223Z,0
2018-04-08T03:35:10.495Z,0
2018-04-08T03:36:10.475Z,0
2018-04-08T03:37:10.478Z,0
2018-04-08T03:38:10.205Z,0
2018-04-08T03:39:10.188Z,0
2018-04-08T03:40:10.180Z,0
2018-04-08T03:41:10.432Z,0
2018-04-08T03:42:10.158Z,0
2018-04-08T03:43:10.424Z,0
2018-04-08T03:44:10.395Z,0
2018-04-08T03:45:10.130Z,0
2018-04-08T03:46:10.132Z,0
2018-04-08T03:47:09.873Z,0
2018-04-08T03:48:09.856Z,0
2018-04-08T03:49:10.108Z,0
2018-04-08T03:50:09.837Z,0
2018-04-08T03:51:10.124Z,0
2018-04-08T03:52:10.330Z,0
2018-04-08T03:53:10.065Z,0
2018-04-08T03:54:10.309Z,0
2018-04-08T03:55:10.295Z,0
2018-04-08T03:56:10.034Z,0
2018-04-08T03:57:09.773Z,0
2018-04-08T03:58:09.772Z,0
2018-04-08T03:59:10.257Z,0
2018-04-08T04:00:09.747Z,0
2018-04-08T04:01:09.485Z,0
2018-04-08T04:02:10.236Z,0
2018-04-08T04:03:09.727Z,0
2018-04-08T04:04:09.962Z,0
2018-04-08T04:05:10.209Z,0
2018-04-08T04:06:09.947Z,0
2018-04-08T04:07:09.938Z,0
2018-04-08T04:08:09.990Z,0
2018-04-08T04:09:09.674Z,0
2018-04-08T04:10:09.917Z,0
2018-04-08T04:11:10.167Z,0
2018-04-08T04:12:09.896Z,0
2018-04-08T04:13:09.883Z,0
2018-04-08T04:14:10.134Z,5
2018-04-08T04:15:09.887Z,5
2018-04-08T04:16:10.118Z,5
2018-04-08T04:17:10.102Z,5
2018-04-08T04:18:09.847Z,5
2018-04-08T04:19:09.833Z,5
2018-04-08T04:20:09.850Z,5
2018-04-08T04:21:09.813Z,10
2018-04-08T04:22:10.056Z,10
2018-04-08T04:23:09.544Z,10
2018-04-08T04:24:10.038Z,10
2018-04-08T04:25:09.272Z,15
2018-04-08T04:26:09.776Z,15
2018-04-08T04:27:09.508Z,15
2018-04-08T04:28:09.497Z,20
2018-04-08T04:29:09.996Z,20
2018-04-08T04:30:09.483Z,20
2018-04-08T04:31:09.978Z,25
2018-04-08T04:32:09.723Z,25
2018-04-08T04:33:09.709Z,25
2018-04-08T04:34:09.964Z,30
2018-04-08T04:35:09.432Z,30
2018-04-08T04:36:09.677Z,35
2018-04-08T04:37:09.929Z,35
2018-04-08T04:38:09.410Z,40
2018-04-08T04:39:09.408Z,40
2018-04-08T04:40:09.645Z,40
2018-04-08T04:41:09.384Z,40
2018-04-08T04:42:09.632Z,45
2018-04-08T04:43:09.617Z,45
2018-04-08T04:44:09.408Z,50
2018-04-08T04:45:09.352Z,50
2018-04-08T04:46:09.589Z,55
2018-04-08T04:47:09.582Z,60
2018-04-08T04:48:09.571Z,60
2018-04-08T04:49:09.560Z,65
2018-04-08T04:50:09.304Z,70
2018-04-08T04:51:09.798Z,75
2018-04-08T04:52:09.787Z,80
2018-04-08T04:53:09.529Z,80
2018-04-08T04:54:09.781Z,80
2018-04-08T04:55:09.510Z,85
2018-04-08T04:56:09.501Z,90
2018-04-08T04:57:09.492Z,95
2018-04-08T04:58:09.481Z,100
2018-04-08T04:59:09.741Z,100
2018-04-08T05:00:09.747Z,105
2018-04-08T05:01:09.722Z,110
2018-04-08T05:02:09.450Z,115
2018-04-08T05:03:09.470Z,120
2018-04-08T05:04:09.433Z,125
2018-04-08T05:05:09.430Z,130
2018-04-08T05:06:08.913Z,135
2018-04-08T05:07:09.664Z,140
2018-04-08T05:08:09.681Z,140
2018-04-08T05:09:09.398Z,150
2018-04-08T05:10:09.639Z,155
2018-04-08T05:11:09.376Z,160
2018-04-08T05:12:09.690Z,160
2018-04-08T05:13:09.621Z,165
2018-04-08T05:14:09.359Z,175
2018-04-08T05:15:09.361Z,180
2018-04-08T05:16:09.103Z,185
2018-04-08T05:17:09.085Z,190
2018-04-08T05:18:09.585Z,195
2018-04-08T05:19:09.073Z,200
2018-04-08T05:20:09.573Z,210
2018-04-08T05:21:09.061Z,215
2018-04-08T05:22:09.332Z,215
2018-04-08T05:23:09.687Z,220
2018-04-08T05:24:09.044Z,230
2018-04-08T05:25:09.035Z,235
2018-04-08T05:26:09.029Z,240
2018-04-08T05:27:09.275Z,250
2018-04-08T05:28:09.283Z,250
2018-04-08T05:29:09.013Z,260
2018-04-08T05:30:09.284Z,265
2018-04-08T05:31:09.508Z,275
2018-04-08T05:32:09.507Z,275
2018-04-08T05:33:09.497Z,285
2018-04-08T05:34:09.238Z,295
2018-04-08T05:35:09.291Z,300
2018-04-08T05:36:09.246Z,305
2018-04-08T05:37:09.241Z,315
2018-04-08T05:38:09.219Z,325
2018-04-08T05:39:09.471Z,325
2018-04-08T05:40:09.473Z,335
2018-04-08T05:41:09.425Z,340
2018-04-08T05:42:09.465Z,350
2018-04-08T05:43:09.463Z,355
2018-04-08T05:44:09.206Z,360
2018-04-08T05:45:08.940Z,370
2018-04-08T05:46:09.190Z,375
2018-04-08T05:47:09.186Z,385
2018-04-08T05:48:09.189Z,390
2018-04-08T05:49:09.189Z,395
2018-04-08T05:50:09.445Z,405
2018-04-08T05:51:09.185Z,415
2018-04-08T05:52:09.175Z,420
2018-04-08T05:53:09.425Z,425
2018-04-08T05:54:08.676Z,435
2018-04-08T05:55:09.181Z,445
2018-04-08T05:56:08.918Z,460
2018-04-08T05:57:08.912Z,460
2018-04-08T05:58:09.665Z,460
2018-04-08T05:59:08.402Z,470
2018-04-08T06:00:09.414Z,475
2018-04-08T06:01:09.416Z,490
2018-04-08T06:02:09.414Z,485
2018-04-08T06:03:08.910Z,505
2018-04-08T06:04:09.154Z,535
2018-04-08T06:05:09.410Z,555
2018-04-08T06:06:08.903Z,570
2018-04-08T06:07:08.909Z,580
2018-04-08T06:08:09.408Z,595
2018-04-08T06:09:08.909Z,600
2018-04-08T06:10:09.324Z,610
2018-04-08T06:11:09.409Z,620
2018-04-08T06:12:09.152Z,630
2018-04-08T06:13:09.162Z,645
2018-04-08T06:14:09.162Z,645
2018-04-08T06:15:09.171Z,660
2018-04-08T06:16:09.408Z,660
2018-04-08T06:17:08.901Z,665
2018-04-08T06:18:09.175Z,675
2018-04-08T06:19:08.654Z,685
2018-04-08T06:20:09.468Z,690
2018-04-08T06:21:09.422Z,705
2018-04-08T06:22:09.434Z,710
2018-04-08T06:23:09.429Z,720
2018-04-08T06:24:08.916Z,735
2018-04-08T06:25:09.183Z,750
2018-04-08T06:26:08.669Z,760
2018-04-08T06:27:09.183Z,770
2018-04-08T06:28:09.430Z,775
2018-04-08T06:29:08.926Z,780
2018-04-08T06:30:09.182Z,795
2018-04-08T06:31:09.446Z,810
2018-04-08T06:32:08.939Z,815
2018-04-08T06:33:09.196Z,815
2018-04-08T06:34:08.696Z,825
2018-04-08T06:35:08.698Z,830
2018-04-08T06:36:09.195Z,855
2018-04-08T06:37:08.947Z,860
2018-04-08T06:38:09.204Z,870
2018-04-08T06:39:09.463Z,875
2018-04-08T06:40:09.214Z,870
2018-04-08T06:41:09.227Z,855
2018-04-08T06:42:09.234Z,845
2018-04-08T06:43:08.965Z,845
2018-04-08T06:44:09.223Z,865
2018-04-08T06:45:08.982Z,870
2018-04-08T06:46:09.233Z,880
2018-04-08T06:47:09.491Z,890
2018-04-08T06:48:09.240Z,900
2018-04-08T06:49:09.007Z,910
2018-04-08T06:50:09.526Z,930
2018-04-08T06:51:09.266Z,930
2018-04-08T06:52:09.270Z,945
2018-04-08T06:53:09.273Z,950
2018-04-08T06:54:09.526Z,965
2018-04-08T06:55:09.018Z,980
2018-04-08T06:56:09.024Z,980
2018-04-08T06:57:09.285Z,1000
2018-04-08T06:58:09.576Z,1005
2018-04-08T06:59:09.545Z,1010
2018-04-08T07:00:09.577Z,1000
2018-04-08T07:01:09.058Z,975
2018-04-08T07:02:08.803Z,935
2018-04-08T07:03:09.570Z,930
2018-04-08T07:04:09.323Z,920
2018-04-08T07:05:09.076Z,935
2018-04-08T07:06:09.596Z,940
2018-04-08T07:07:09.585Z,940
2018-04-08T07:08:09.596Z,950
2018-04-08T07:09:09.103Z,960
2018-04-08T07:10:09.098Z,980
2018-04-08T07:11:09.371Z,1005
2018-04-08T07:12:09.537Z,1025
2018-04-08T07:13:09.629Z,1060
2018-04-08T07:14:09.375Z,1085
2018-04-08T07:15:09.384Z,1100
2018-04-08T07:16:08.880Z,1130
2018-04-08T07:17:09.968Z,1155
2018-04-08T07:18:09.412Z,1165
2018-04-08T07:19:09.659Z,1185
2018-04-08T07:20:09.664Z,1180
2018-04-08T07:21:09.164Z,1175
2018-04-08T07:22:09.685Z,1160
2018-04-08T07:23:09.446Z,1135
2018-04-08T07:24:09.697Z,1120
2018-04-08T07:25:08.942Z,1135
2018-04-08T07:26:09.716Z,1295
2018-04-08T07:27:09.732Z,1485
2018-04-08T07:28:08.974Z,1535
2018-04-08T07:29:09.736Z,1545
2018-04-08T07:30:09.226Z,1560
2018-04-08T07:31:08.982Z,1575
2018-04-08T07:32:09.534Z,1605
2018-04-08T07:33:09.759Z,1620
2018-04-08T07:34:09.775Z,1620
2018-04-08T07:35:09.515Z,1640
2018-04-08T07:36:09.541Z,1670
2018-04-08T07:38:09.924Z,1725
2018-04-08T07:39:09.556Z,1740
2018-04-08T07:40:09.857Z,1745
2018-04-08T07:41:09.572Z,1755
2018-04-08T07:42:09.572Z,1770
2018-04-08T07:43:09.840Z,1770
2018-04-08T07:44:09.901Z,1790
2018-04-08T07:45:09.623Z,1765
2018-04-08T07:46:09.884Z,1770
2018-04-08T07:47:09.877Z,1770
2018-04-08T07:48:09.881Z,1740
2018-04-08T07:49:09.397Z,1725
2018-04-08T07:50:09.967Z,1720
2018-04-08T07:51:09.914Z,1645
2018-04-08T07:52:09.661Z,1390
2018-04-08T07:53:09.677Z,1265
2018-04-08T07:54:09.942Z,1270
2018-04-08T07:55:09.702Z,1275
2018-04-08T07:56:09.696Z,1280
2018-04-08T07:57:09.760Z,1290
2018-04-08T07:58:09.989Z,1285
2018-04-08T07:59:10.083Z,1300
2018-04-08T08:00:09.237Z,1315
2018-04-08T08:01:09.516Z,1320
2018-04-08T08:02:10.019Z,1325
2018-04-08T08:03:09.788Z,1335
2018-04-08T08:04:10.040Z,1350
2018-04-08T08:05:10.037Z,1340
2018-04-08T08:06:09.543Z,1345
2018-04-08T08:07:09.813Z,1360
2018-04-08T08:08:10.063Z,1370
2018-04-08T08:09:10.068Z,1380
2018-04-08T08:10:09.813Z,1380
2018-04-08T08:11:10.120Z,1400
2018-04-08T08:12:09.332Z,1405
2018-04-08T08:13:10.111Z,1420
2018-04-08T08:14:10.190Z,1415
2018-04-08T08:15:09.874Z,1420
2018-04-08T08:16:10.140Z,1410
2018-04-08T08:17:10.138Z,1400
2018-04-08T08:18:09.627Z,1400
2018-04-08T08:19:10.132Z,1405
2018-04-08T08:20:09.886Z,1415
2018-04-08T08:21:09.894Z,1275
2018-04-08T08:22:09.687Z,685
2018-04-08T08:23:09.401Z,335
2018-04-08T08:24:09.660Z,325
2018-04-08T08:25:09.671Z,325
2018-04-08T08:26:09.678Z,320
2018-04-08T08:27:09.935Z,320
2018-04-08T08:28:10.233Z,320
2018-04-08T08:29:10.230Z,320
2018-04-08T08:30:09.710Z,320
2018-04-08T08:31:10.210Z,315
2018-04-08T08:32:09.701Z,315
2018-04-08T08:33:10.232Z,315
2018-04-08T08:34:09.961Z,310
2018-04-08T08:35:09.961Z,310
2018-04-08T08:36:10.238Z,310
2018-04-08T08:37:09.963Z,315
2018-04-08T08:38:09.713Z,305
2018-04-08T08:39:10.214Z,305
2018-04-08T08:40:10.212Z,305
2018-04-08T08:41:10.239Z,300
2018-04-08T08:42:10.222Z,300
2018-04-08T08:43:09.964Z,300
2018-04-08T08:44:10.230Z,300
2018-04-08T08:45:09.970Z,300
2018-04-08T08:46:10.457Z,300
2018-04-08T08:47:10.215Z,295
2018-04-08T08:48:09.971Z,295
2018-04-08T08:49:10.011Z,295
2018-04-08T08:50:09.702Z,295
2018-04-08T08:51:09.967Z,290
2018-04-08T08:52:09.961Z,290
2018-04-08T08:53:09.715Z,290
2018-04-08T08:54:09.968Z,290
2018-04-08T08:55:10.383Z,285
2018-04-08T08:56:09.951Z,285
2018-04-08T08:57:09.446Z,285
2018-04-08T08:58:09.958Z,285
2018-04-08T08:59:10.200Z,285
2018-04-08T09:00:09.697Z,285
2018-04-08T09:01:10.456Z,280
2018-04-08T09:02:10.185Z,280
2018-04-08T09:03:09.948Z,280
2018-04-08T09:04:09.935Z,280
2018-04-08T09:05:10.201Z,280
2018-04-08T09:06:10.184Z,280
2018-04-08T09:07:09.927Z,275
2018-04-08T09:08:09.934Z,275
2018-04-08T09:09:09.665Z,275
2018-04-08T09:10:09.670Z,275
2018-04-08T09:11:09.654Z,275
2018-04-08T09:12:10.063Z,275
2018-04-08T09:13:09.913Z,275
2018-04-08T09:14:09.915Z,270
2018-04-08T09:15:09.661Z,270
2018-04-08T09:16:09.642Z,270
2018-04-08T09:17:10.165Z,270
2018-04-08T09:18:09.893Z,270
2018-04-08T09:19:10.141Z,270
2018-04-08T09:20:09.655Z,270
2018-04-08T09:21:09.639Z,270
2018-04-08T09:22:09.625Z,270
2018-04-08T09:23:10.129Z,270
2018-04-08T09:24:10.153Z,270
2018-04-08T09:25:09.874Z,270
2018-04-08T09:26:09.630Z,270
2018-04-08T09:27:09.868Z,270
2018-04-08T09:28:10.167Z,270
2018-04-08T09:29:10.290Z,270
2018-04-08T09:30:10.129Z,270
2018-04-08T09:31:09.874Z,265
2018-04-08T09:32:09.857Z,265
2018-04-08T09:33:09.847Z,265
2018-04-08T09:34:09.594Z,265
2018-04-08T09:35:10.109Z,265
2018-04-08T09:36:09.852Z,265
2018-04-08T09:37:09.849Z,265
2018-04-08T09:38:10.095Z,265
2018-04-08T09:39:09.589Z,265
2018-04-08T09:40:09.598Z,265
2018-04-08T09:41:09.830Z,265
2018-04-08T09:42:09.825Z,265
2018-04-08T09:43:10.087Z,265
2018-04-08T09:44:09.564Z,260
2018-04-08T09:45:10.081Z,260
2018-04-08T09:46:09.564Z,260
2018-04-08T09:47:10.071Z,260
2018-04-08T09:48:09.808Z,260
2018-04-08T09:49:10.063Z,260
2018-04-08T09:50:09.801Z,260
2018-04-08T09:51:09.800Z,260
2018-04-08T09:52:10.105Z,260
2018-04-08T09:53:09.799Z,260
2018-04-08T09:54:10.051Z,255
2018-04-08T09:55:10.291Z,255
2018-04-08T09:56:10.050Z,255
2018-04-08T09:57:10.048Z,255
2018-04-08T09:58:10.042Z,255
2018-04-08T09:59:09.782Z,255
2018-04-08T10:00:09.530Z,255
2018-04-08T10:01:09.792Z,255
2018-04-08T10:02:09.783Z,255
2018-04-08T10:03:09.771Z,255
2018-04-08T10:04:09.777Z,250
2018-04-08T10:05:09.768Z,250
2018-04-08T10:06:09.761Z,250
2018-04-08T10:07:09.784Z,250
2018-04-08T10:08:10.004Z,250
2018-04-08T10:09:10.014Z,250
2018-04-08T10:10:09.765Z,250
2018-04-08T10:11:09.265Z,250
2018-04-08T10:12:10.351Z,245
2018-04-08T10:13:10.001Z,245
2018-04-08T10:14:09.997Z,245
2018-04-08T10:15:09.232Z,245
2018-04-08T10:16:09.228Z,245
2018-04-08T10:17:09.753Z,245
2018-04-08T10:18:09.746Z,245
2018-04-08T10:19:09.982Z,245
2018-04-08T10:20:09.733Z,245
2018-04-08T10:21:09.733Z,245
2018-04-08T10:22:10.014Z,245
2018-04-08T10:23:09.726Z,245
2018-04-08T10:24:09.233Z,245
2018-04-08T10:25:10.002Z,240
2018-04-08T10:26:09.728Z,240
2018-04-08T10:27:09.982Z,240
2018-04-08T10:28:09.971Z,240
2018-04-08T10:29:10.064Z,240
2018-04-08T10:30:09.741Z,240
2018-04-08T10:31:09.977Z,240
2018-04-08T10:32:09.962Z,240
2018-04-08T10:33:09.223Z,240
2018-04-08T10:34:09.944Z,235
2018-04-08T10:35:09.741Z,235
2018-04-08T10:36:09.691Z,235
2018-04-08T10:37:09.718Z,235
2018-04-08T10:38:09.946Z,235
2018-04-08T10:39:09.944Z,235
2018-04-08T10:40:09.681Z,235
2018-04-08T10:41:09.722Z,235
2018-04-08T10:42:09.683Z,235
2018-04-08T10:43:09.929Z,235
2018-04-08T10:44:09.929Z,230
2018-04-08T10:45:09.682Z,230
2018-04-08T10:46:09.667Z,230
2018-04-08T10:47:09.412Z,230
2018-04-08T10:48:09.662Z,230
2018-04-08T10:49:09.159Z,230
2018-04-08T10:50:09.689Z,230
2018-04-08T10:51:09.150Z,230
2018-04-08T10:52:09.419Z,230
2018-04-08T10:53:09.429Z,230
2018-04-08T10:54:09.393Z,230
2018-04-08T10:55:09.644Z,230
2018-04-08T10:56:09.893Z,230
2018-04-08T10:57:09.388Z,230
2018-04-08T10:58:09.434Z,225
2018-04-08T10:59:09.392Z,225
2018-04-08T11:00:09.887Z,225
2018-04-08T11:01:09.707Z,225
2018-04-08T11:02:09.636Z,225
2018-04-08T11:03:09.919Z,225
2018-04-08T11:04:09.657Z,225
2018-04-08T11:05:09.447Z,225
2018-04-08T11:06:08.876Z,225
2018-04-08T11:07:09.896Z,225
2018-04-08T11:08:09.895Z,225
2018-04-08T11:09:09.629Z,225
2018-04-08T11:10:09.974Z,220
2018-04-08T11:11:09.858Z,220
2018-04-08T11:12:09.861Z,220
2018-04-08T11:13:09.603Z,225
2018-04-08T11:14:09.613Z,225
2018-04-08T11:15:09.602Z,220
2018-04-08T11:16:08.878Z,225
2018-04-08T11:17:09.859Z,220
2018-04-08T11:18:09.608Z,220
2018-04-08T11:19:09.591Z,220
2018-04-08T11:20:09.598Z,220
2018-04-08T11:21:09.336Z,220
2018-04-08T11:22:09.846Z,225
2018-04-08T11:23:09.348Z,220
2018-04-08T11:24:09.843Z,220
2018-04-08T11:25:09.617Z,220
2018-04-08T11:26:09.594Z,220
2018-04-08T11:27:09.572Z,220
2018-04-08T11:28:09.851Z,220
2018-04-08T11:29:09.317Z,220
2018-04-08T11:30:09.569Z,215
2018-04-08T11:31:09.326Z,215
2018-04-08T11:32:09.582Z,215
2018-04-08T11:33:09.820Z,215
2018-04-08T11:34:09.849Z,215
2018-04-08T11:35:09.302Z,215
2018-04-08T11:36:09.823Z,215
2018-04-08T11:37:09.942Z,215
2018-04-08T11:38:09.851Z,215
2018-04-08T11:39:09.567Z,215
2018-04-08T11:40:09.543Z,215
2018-04-08T11:41:09.827Z,215
2018-04-08T11:42:09.560Z,215
2018-04-08T11:43:09.825Z,215
2018-04-08T11:44:09.534Z,215
2018-04-08T11:45:09.284Z,215
2018-04-08T11:46:09.539Z,215
2018-04-08T11:47:09.529Z,215
2018-04-08T11:48:09.805Z,215
2018-04-08T11:49:09.784Z,215
2018-04-08T11:50:09.273Z,215
2018-04-08T11:51:09.780Z,215
2018-04-08T11:52:09.538Z,215
2018-04-08T11:53:09.537Z,215
2018-04-08T11:54:09.027Z,215
2018-04-08T11:55:09.770Z,210
2018-04-08T11:56:09.767Z,210
2018-04-08T11:57:09.523Z,215
2018-04-08T11:58:09.787Z,215
2018-04-08T11:59:09.507Z,215
2018-04-08T12:00:09.785Z,215
2018-04-08T12:01:09.504Z,215
2018-04-08T12:02:10.143Z,215
2018-04-08T12:03:09.501Z,215
2018-04-08T12:04:09.495Z,215
2018-04-08T12:05:09.508Z,215
2018-04-08T12:06:09.242Z,215
2018-04-08T12:07:09.494Z,215
2018-04-08T12:08:09.255Z,215
2018-04-08T12:09:09.504Z,215
2018-04-08T12:10:09.494Z,210
2018-04-08T12:11:09.498Z,210
2018-04-08T12:12:09.750Z,210
2018-04-08T12:13:09.896Z,210
2018-04-08T12:14:09.751Z,210
2018-04-08T12:15:08.985Z,210
2018-04-08T12:16:09.729Z,210
2018-04-08T12:17:09.499Z,210
2018-04-08T12:18:09.499Z,210
2018-04-08T12:19:09.465Z,210
2018-04-08T12:20:09.730Z,210
2018-04-08T12:21:09.735Z,210
2018-04-08T12:22:09.468Z,210
2018-04-08T12:23:09.714Z,210
2018-04-08T12:24:09.469Z,210
2018-04-08T12:25:09.796Z,210
2018-04-08T12:26:09.724Z,210
2018-04-08T12:27:09.718Z,210
2018-04-08T12:28:09.702Z,210
2018-04-08T12:29:09.706Z,210
2018-04-08T12:30:09.447Z,210
2018-04-08T12:31:08.942Z,210
2018-04-08T12:32:09.700Z,210
2018-04-08T12:33:09.704Z,210
2018-04-08T12:34:09.692Z,210
2018-04-08T12:35:09.447Z,210
2018-04-08T12:36:09.181Z,210
2018-04-08T12:37:09.694Z,210
2018-04-08T12:38:09.697Z,210
2018-04-08T12:39:09.439Z,210
2018-04-08T12:40:09.701Z,210
2018-04-08T12:41:09.689Z,205
2018-04-08T12:42:09.700Z,210
2018-04-08T12:43:09.425Z,210
2018-04-08T12:44:09.436Z,210
2018-04-08T12:45:09.171Z,210
2018-04-08T12:46:09.422Z,210
2018-04-08T12:47:09.167Z,210
2018-04-08T12:48:09.691Z,210
2018-04-08T12:49:09.670Z,210
2018-04-08T12:50:09.427Z,205
2018-04-08T12:51:09.413Z,205
2018-04-08T12:52:09.177Z,205
2018-04-08T12:53:09.697Z,215
2018-04-08T12:54:09.177Z,210
2018-04-08T12:55:09.676Z,210
2018-04-08T12:56:09.474Z,210
2018-04-08T12:57:09.649Z,210
2018-04-08T12:58:09.416Z,205
2018-04-08T12:59:09.412Z,205
2018-04-08T13:00:09.417Z,205
2018-04-08T13:01:09.136Z,205
2018-04-08T13:02:09.655Z,205
2018-04-08T13:03:09.411Z,205
2018-04-08T13:04:09.399Z,205
2018-04-08T13:05:09.592Z,205
2018-04-08T13:06:09.400Z,205
2018-04-08T13:07:09.392Z,205
2018-04-08T13:08:09.133Z,205
2018-04-08T13:09:09.384Z,205
2018-04-08T13:10:09.411Z,210
2018-04-08T13:11:09.388Z,205
2018-04-08T13:12:09.394Z,205
2018-04-08T13:13:09.638Z,205
2018-04-08T13:14:09.238Z,205
2018-04-08T13:15:09.395Z,205
2018-04-08T13:16:09.382Z,205
2018-04-08T13:17:09.109Z,205
2018-04-08T13:18:09.381Z,205
2018-04-08T13:19:09.618Z,205
2018-04-08T13:20:09.104Z,200
2018-04-08T13:21:09.104Z,200
2018-04-08T13:22:09.422Z,200
2018-04-08T13:23:09.354Z,200
2018-04-08T13:24:09.359Z,200
2018-04-08T13:25:09.602Z,200
2018-04-08T13:26:09.118Z,200
2018-04-08T13:27:09.358Z,200
2018-04-08T13:28:09.109Z,200
2018-04-08T13:29:09.355Z,200
2018-04-08T13:30:09.355Z,200
2018-04-08T13:31:09.592Z,200
2018-04-08T13:32:09.091Z,205
2018-04-08T13:33:09.116Z,205
2018-04-08T13:34:08.573Z,205
2018-04-08T13:35:09.100Z,205
2018-04-08T13:36:09.086Z,205
2018-04-08T13:37:09.099Z,205
2018-04-08T13:38:09.586Z,205
2018-04-08T13:39:09.323Z,205
2018-04-08T13:40:09.585Z,205
2018-04-08T13:41:09.077Z,205
2018-04-08T13:42:09.326Z,205
2018-04-08T13:43:09.582Z,205
2018-04-08T13:44:09.085Z,200
2018-04-08T13:45:09.315Z,200
2018-04-08T13:46:09.316Z,205
2018-04-08T13:47:09.313Z,210
2018-04-08T13:48:09.059Z,215
2018-04-08T13:49:09.087Z,205
2018-04-08T13:50:09.559Z,200
2018-04-08T13:51:09.567Z,200
2018-04-08T13:52:09.073Z,200
2018-04-08T13:53:08.808Z,200
2018-04-08T13:54:09.063Z,200
2018-04-08T13:55:09.329Z,200
2018-04-08T13:56:09.042Z,200
2018-04-08T13:57:08.791Z,205
2018-04-08T13:58:09.561Z,205
2018-04-08T13:59:09.042Z,200
2018-04-08T14:00:09.562Z,200
2018-04-08T14:01:09.050Z,200
2018-04-08T14:02:09.488Z,205
2018-04-08T14:03:09.290Z,205